sensor_id;sensor_type;location;lat;lon;timestamp;pressure;altitude;pressure_sealevel;temperature;humidity
67457;BME280;54319;52.038;4.640;2023-04-15T00:01:21;100966.81;;;8.51;65.41
67457;BME280;54319;52.038;4.640;2023-04-15T00:03:50;100971.81;;;8.47;65.92
67457;BME280;54319;52.038;4.640;2023-04-15T00:06:18;100972.59;;;8.41;65.90
67457;BME280;54319;52.038;4.640;2023-04-15T00:08:44;100979.44;;;8.37;66.00
67457;BME280;54319;52.038;4.640;2023-04-15T00:11:12;100981.88;;;8.32;66.26
67457;BME280;54319;52.038;4.640;2023-04-15T00:13:39;100970.75;;;8.26;66.41
67457;BME280;54319;52.038;4.640;2023-04-15T00:16:06;100979.69;;;8.20;66.94
67457;BME280;54319;52.038;4.640;2023-04-15T00:18:33;100977.09;;;8.12;67.30
67457;BME280;54319;52.038;4.640;2023-04-15T00:21:00;100965.88;;;8.00;67.29
67457;BME280;54319;52.038;4.640;2023-04-15T00:23:27;100975.53;;;8.03;67.16
67457;BME280;54319;52.038;4.640;2023-04-15T00:25:54;100982.19;;;8.00;67.59
67457;BME280;54319;52.038;4.640;2023-04-15T00:28:22;100961.53;;;7.84;67.39
67457;BME280;54319;52.038;4.640;2023-04-15T00:30:49;100986.06;;;7.91;67.98
67457;BME280;54319;52.038;4.640;2023-04-15T00:33:15;100952.97;;;7.65;67.70
67457;BME280;54319;52.038;4.640;2023-04-15T00:35:42;100983.47;;;7.82;67.88
67457;BME280;54319;52.038;4.640;2023-04-15T00:38:09;100978.59;;;7.78;67.74
67457;BME280;54319;52.038;4.640;2023-04-15T00:40:36;100971.38;;;7.70;68.09
67457;BME280;54319;52.038;4.640;2023-04-15T00:43:08;100982.06;;;7.72;68.08
67457;BME280;54319;52.038;4.640;2023-04-15T00:45:36;100909.03;;;7.25;67.78
67457;BME280;54319;52.038;4.640;2023-04-15T00:48:04;100969.16;;;7.59;68.15
67457;BME280;54319;52.038;4.640;2023-04-15T00:50:32;100983.22;;;7.62;68.28
67457;BME280;54319;52.038;4.640;2023-04-15T00:52:59;100980.88;;;7.59;67.87
67457;BME280;54319;52.038;4.640;2023-04-15T00:55:44;100978.53;;;7.56;68.25
67457;BME280;54319;52.038;4.640;2023-04-15T00:58:10;100981.63;;;7.53;68.38
67457;BME280;54319;52.038;4.640;2023-04-15T01:00:38;100978.25;;;7.51;68.81
67457;BME280;54319;52.038;4.640;2023-04-15T01:03:05;100954.59;;;7.30;68.77
67457;BME280;54319;52.038;4.640;2023-04-15T01:05:32;100964.50;;;7.37;68.62
67457;BME280;54319;52.038;4.640;2023-04-15T01:07:59;100972.16;;;7.34;68.94
67457;BME280;54319;52.038;4.640;2023-04-15T01:10:26;100977.22;;;7.37;69.38
67457;BME280;54319;52.038;4.640;2023-04-15T01:12:53;100983.88;;;7.34;69.33
67457;BME280;54319;52.038;4.640;2023-04-15T01:15:20;100977.97;;;7.31;69.52
67457;BME280;54319;52.038;4.640;2023-04-15T01:17:48;100962.72;;;7.15;69.46
67457;BME280;54319;52.038;4.640;2023-04-15T01:20:15;100984.81;;;7.27;69.60
67457;BME280;54319;52.038;4.640;2023-04-15T01:22:42;100989.59;;;7.24;69.39
67457;BME280;54319;52.038;4.640;2023-04-15T01:25:12;100980.78;;;7.22;69.84
67457;BME280;54319;52.038;4.640;2023-04-15T01:27:43;100984.53;;;7.21;69.84
67457;BME280;54319;52.038;4.640;2023-04-15T01:30:10;100983.22;;;7.17;70.26
67457;BME280;54319;52.038;4.640;2023-04-15T01:32:37;100989.69;;;7.16;70.25
67457;BME280;54319;52.038;4.640;2023-04-15T01:35:04;100982.75;;;7.14;70.87
67457;BME280;54319;52.038;4.640;2023-04-15T01:37:32;100938.47;;;6.83;71.40
67457;BME280;54319;52.038;4.640;2023-04-15T01:39:59;100984.34;;;7.08;71.06
67457;BME280;54319;52.038;4.640;2023-04-15T01:42:25;100975.44;;;6.99;71.27
67457;BME280;54319;52.038;4.640;2023-04-15T01:44:54;100941.44;;;6.73;71.62
67457;BME280;54319;52.038;4.640;2023-04-15T01:47:20;100986.09;;;7.01;71.99
67457;BME280;54319;52.038;4.640;2023-04-15T01:49:48;100986.28;;;6.99;71.80
67457;BME280;54319;52.038;4.640;2023-04-15T01:52:15;100990.22;;;6.97;72.08
67457;BME280;54319;52.038;4.640;2023-04-15T01:54:42;100990.41;;;6.95;71.94
67457;BME280;54319;52.038;4.640;2023-04-15T01:57:09;100971.69;;;6.85;72.38
67457;BME280;54319;52.038;4.640;2023-04-15T01:59:36;100958.09;;;6.70;72.77
67457;BME280;54319;52.038;4.640;2023-04-15T02:02:03;100993.66;;;6.90;72.86
67457;BME280;54319;52.038;4.640;2023-04-15T02:04:30;100988.44;;;6.89;73.16
67457;BME280;54319;52.038;4.640;2023-04-15T02:06:58;100943.47;;;6.56;73.26
67457;BME280;54319;52.038;4.640;2023-04-15T02:09:25;100991.31;;;6.87;73.58
67457;BME280;54319;52.038;4.640;2023-04-15T02:11:52;100983.06;;;6.80;73.43
67457;BME280;54319;52.038;4.640;2023-04-15T02:14:19;100987.00;;;6.78;73.99
67457;BME280;54319;52.038;4.640;2023-04-15T02:16:45;100999.00;;;6.84;73.95
67457;BME280;54319;52.038;4.640;2023-04-15T02:19:13;100996.34;;;6.75;74.37
67457;BME280;54319;52.038;4.640;2023-04-15T02:21:40;101000.72;;;6.76;74.62
67457;BME280;54319;52.038;4.640;2023-04-15T02:24:07;101002.69;;;6.68;74.96
67457;BME280;54319;52.038;4.640;2023-04-15T02:26:33;101000.16;;;6.66;75.37
67457;BME280;54319;52.038;4.640;2023-04-15T02:29:00;101000.88;;;6.60;75.50
67457;BME280;54319;52.038;4.640;2023-04-15T02:31:27;100990.34;;;6.42;75.71
67457;BME280;54319;52.038;4.640;2023-04-15T02:33:53;101012.16;;;6.48;75.67
67457;BME280;54319;52.038;4.640;2023-04-15T02:36:21;100978.28;;;6.21;76.10
67457;BME280;54319;52.038;4.640;2023-04-15T02:38:48;101001.31;;;6.25;76.27
67457;BME280;54319;52.038;4.640;2023-04-15T02:41:16;101013.50;;;6.21;76.77
67457;BME280;54319;52.038;4.640;2023-04-15T02:43:42;101019.50;;;6.16;76.74
67457;BME280;54319;52.038;4.640;2023-04-15T02:46:09;101021.03;;;6.11;77.53
67457;BME280;54319;52.038;4.640;2023-04-15T02:48:38;101020.88;;;6.12;77.34
67457;BME280;54319;52.038;4.640;2023-04-15T02:51:13;101025.44;;;6.12;77.31
67457;BME280;54319;52.038;4.640;2023-04-15T02:53:41;101031.72;;;6.04;77.72
67457;BME280;54319;52.038;4.640;2023-04-15T02:56:08;101037.34;;;6.02;77.45
67457;BME280;54319;52.038;4.640;2023-04-15T02:58:35;101036.13;;;5.97;78.24
67457;BME280;54319;52.038;4.640;2023-04-15T03:01:02;100947.25;;;5.37;77.89
67457;BME280;54319;52.038;4.640;2023-04-15T03:03:29;101036.50;;;5.93;78.08
67457;BME280;54319;52.038;4.640;2023-04-15T03:05:55;101037.38;;;5.86;78.22
67457;BME280;54319;52.038;4.640;2023-04-15T03:08:22;101036.34;;;5.87;78.73
67457;BME280;54319;52.038;4.640;2023-04-15T03:10:50;101039.59;;;5.82;78.63
67457;BME280;54319;52.038;4.640;2023-04-15T03:13:18;100959.81;;;5.30;78.69
67457;BME280;54319;52.038;4.640;2023-04-15T03:15:45;101047.75;;;5.74;79.18
67457;BME280;54319;52.038;4.640;2023-04-15T03:18:12;101038.97;;;5.72;79.45
67457;BME280;54319;52.038;4.640;2023-04-15T03:20:39;101017.03;;;5.58;79.46
67457;BME280;54319;52.038;4.640;2023-04-15T03:23:05;101047.44;;;5.69;79.55
67457;BME280;54319;52.038;4.640;2023-04-15T03:25:32;101042.88;;;5.69;79.69
67457;BME280;54319;52.038;4.640;2023-04-15T03:28:01;101042.88;;;5.69;80.01
67457;BME280;54319;52.038;4.640;2023-04-15T03:30:27;101034.94;;;5.59;79.66
67457;BME280;54319;52.038;4.640;2023-04-15T03:32:54;101049.31;;;5.68;80.10
67457;BME280;54319;52.038;4.640;2023-04-15T03:35:20;101024.16;;;5.51;79.98
67457;BME280;54319;52.038;4.640;2023-04-15T03:37:47;101029.25;;;5.46;79.99
67457;BME280;54319;52.038;4.640;2023-04-15T03:40:13;101059.25;;;5.68;80.15
67457;BME280;54319;52.038;4.640;2023-04-15T03:42:41;101068.41;;;5.67;80.17
67457;BME280;54319;52.038;4.640;2023-04-15T03:45:10;101070.44;;;5.64;80.39
67457;BME280;54319;52.038;4.640;2023-04-15T03:47:37;101050.88;;;5.54;80.76
67457;BME280;54319;52.038;4.640;2023-04-15T03:50:04;100983.03;;;5.07;80.75
67457;BME280;54319;52.038;4.640;2023-04-15T03:52:31;101067.97;;;5.55;80.82
67457;BME280;54319;52.038;4.640;2023-04-15T03:54:58;101081.63;;;5.61;80.80
67457;BME280;54319;52.038;4.640;2023-04-15T03:57:24;101078.25;;;5.59;81.21
67457;BME280;54319;52.038;4.640;2023-04-15T03:59:51;101090.09;;;5.58;81.48
67457;BME280;54319;52.038;4.640;2023-04-15T04:02:19;101092.78;;;5.58;81.54
67457;BME280;54319;52.038;4.640;2023-04-15T04:04:47;101080.47;;;5.47;81.90
67457;BME280;54319;52.038;4.640;2023-04-15T04:07:14;101088.59;;;5.56;81.86
67457;BME280;54319;52.038;4.640;2023-04-15T04:09:41;101096.19;;;5.52;82.32
67457;BME280;54319;52.038;4.640;2023-04-15T04:12:08;101087.78;;;5.39;82.54
67457;BME280;54319;52.038;4.640;2023-04-15T04:14:34;101112.44;;;5.52;82.61
67457;BME280;54319;52.038;4.640;2023-04-15T04:17:01;101108.91;;;5.52;82.65
67457;BME280;54319;52.038;4.640;2023-04-15T04:19:29;101076.63;;;5.25;82.59
67457;BME280;54319;52.038;4.640;2023-04-15T04:21:55;101120.22;;;5.47;83.14
67457;BME280;54319;52.038;4.640;2023-04-15T04:24:22;101109.06;;;5.42;83.25
67457;BME280;54319;52.038;4.640;2023-04-15T04:26:49;101115.50;;;5.49;83.09
67457;BME280;54319;52.038;4.640;2023-04-15T04:29:15;101104.00;;;5.39;83.35
67457;BME280;54319;52.038;4.640;2023-04-15T04:31:42;101127.84;;;5.52;83.40
67457;BME280;54319;52.038;4.640;2023-04-15T04:34:10;101088.78;;;5.29;83.40
67457;BME280;54319;52.038;4.640;2023-04-15T04:36:38;101135.97;;;5.52;83.76
67457;BME280;54319;52.038;4.640;2023-04-15T04:39:04;101126.66;;;5.46;83.90
67457;BME280;54319;52.038;4.640;2023-04-15T04:41:31;101135.09;;;5.51;83.81
67457;BME280;54319;52.038;4.640;2023-04-15T04:43:58;101124.13;;;5.36;84.12
67457;BME280;54319;52.038;4.640;2023-04-15T04:46:24;101146.44;;;5.46;84.32
67457;BME280;54319;52.038;4.640;2023-04-15T04:48:51;101138.16;;;5.40;84.40
67457;BME280;54319;52.038;4.640;2023-04-15T04:51:18;101152.03;;;5.45;84.51
67457;BME280;54319;52.038;4.640;2023-04-15T04:53:46;101159.47;;;5.43;84.55
67457;BME280;54319;52.038;4.640;2023-04-15T04:56:13;101162.19;;;5.43;84.95
67457;BME280;54319;52.038;4.640;2023-04-15T04:58:39;101168.59;;;5.42;85.00
67457;BME280;54319;52.038;4.640;2023-04-15T05:01:06;101125.50;;;5.15;85.02
67457;BME280;54319;52.038;4.640;2023-04-15T05:03:33;101176.72;;;5.42;85.31
67457;BME280;54319;52.038;4.640;2023-04-15T05:05:59;101176.72;;;5.42;85.31
67457;BME280;54319;52.038;4.640;2023-04-15T05:08:27;101173.81;;;5.43;85.38
67457;BME280;54319;52.038;4.640;2023-04-15T05:10:55;101185.50;;;5.44;85.08
67457;BME280;54319;52.038;4.640;2023-04-15T05:13:21;101198.19;;;5.43;85.46
67457;BME280;54319;52.038;4.640;2023-04-15T05:15:48;101195.31;;;5.45;85.51
67457;BME280;54319;52.038;4.640;2023-04-15T05:18:15;101191.28;;;5.41;85.43
67457;BME280;54319;52.038;4.640;2023-04-15T05:20:41;101204.47;;;5.44;85.74
67457;BME280;54319;52.038;4.640;2023-04-15T05:23:08;101215.28;;;5.44;85.95
67457;BME280;54319;52.038;4.640;2023-04-15T05:25:35;101214.06;;;5.46;86.08
67457;BME280;54319;52.038;4.640;2023-04-15T05:28:04;101222.88;;;5.48;86.19
67457;BME280;54319;52.038;4.640;2023-04-15T05:30:31;101225.25;;;5.52;86.32
67457;BME280;54319;52.038;4.640;2023-04-15T05:32:57;101233.88;;;5.55;86.03
67457;BME280;54319;52.038;4.640;2023-04-15T05:35:24;101234.53;;;5.57;86.13
67457;BME280;54319;52.038;4.640;2023-04-15T05:37:51;101246.06;;;5.59;86.47
67457;BME280;54319;52.038;4.640;2023-04-15T05:40:18;101230.16;;;5.48;86.47
67457;BME280;54319;52.038;4.640;2023-04-15T05:42:45;101227.78;;;5.45;86.30
67457;BME280;54319;52.038;4.640;2023-04-15T05:45:13;101260.94;;;5.63;86.63
67457;BME280;54319;52.038;4.640;2023-04-15T05:47:39;101249.09;;;5.48;86.30
67457;BME280;54319;52.038;4.640;2023-04-15T05:50:06;101281.56;;;5.64;86.74
67457;BME280;54319;52.038;4.640;2023-04-15T05:52:33;101259.59;;;5.51;86.72
67457;BME280;54319;52.038;4.640;2023-04-15T05:54:59;101284.13;;;5.66;86.94
67457;BME280;54319;52.038;4.640;2023-04-15T05:57:26;101290.22;;;5.68;87.11
67457;BME280;54319;52.038;4.640;2023-04-15T05:59:53;101290.72;;;5.72;87.08
67457;BME280;54319;52.038;4.640;2023-04-15T06:02:22;101295.63;;;5.76;87.17
67457;BME280;54319;52.038;4.640;2023-04-15T06:04:49;101301.56;;;5.80;87.35
67457;BME280;54319;52.038;4.640;2023-04-15T06:07:16;101315.44;;;5.85;87.20
67457;BME280;54319;52.038;4.640;2023-04-15T06:09:43;101317.63;;;5.90;87.26
67457;BME280;54319;52.038;4.640;2023-04-15T06:12:10;101271.75;;;5.63;87.57
67457;BME280;54319;52.038;4.640;2023-04-15T06:14:38;101301.88;;;5.85;87.80
67457;BME280;54319;52.038;4.640;2023-04-15T06:17:05;101340.66;;;6.11;87.29
67457;BME280;54319;52.038;4.640;2023-04-15T06:19:34;101337.94;;;6.19;87.23
67457;BME280;54319;52.038;4.640;2023-04-15T06:22:01;101344.56;;;6.25;87.19
67457;BME280;54319;52.038;4.640;2023-04-15T06:24:27;101352.00;;;6.31;86.98
67457;BME280;54319;52.038;4.640;2023-04-15T06:26:54;101359.09;;;6.40;87.01
67457;BME280;54319;52.038;4.640;2023-04-15T06:29:21;101362.16;;;6.45;87.10
67457;BME280;54319;52.038;4.640;2023-04-15T06:31:48;101361.63;;;6.50;86.90
67457;BME280;54319;52.038;4.640;2023-04-15T06:34:16;101330.97;;;6.33;86.86
67457;BME280;54319;52.038;4.640;2023-04-15T06:36:43;101357.53;;;6.54;86.81
67457;BME280;54319;52.038;4.640;2023-04-15T06:39:10;101383.41;;;6.73;86.70
67457;BME280;54319;52.038;4.640;2023-04-15T06:41:37;101383.56;;;6.80;86.32
67457;BME280;54319;52.038;4.640;2023-04-15T06:44:04;101383.91;;;6.85;86.52
67457;BME280;54319;52.038;4.640;2023-04-15T06:46:30;101386.75;;;6.92;86.58
67457;BME280;54319;52.038;4.640;2023-04-15T06:48:57;101392.31;;;6.99;86.17
67457;BME280;54319;52.038;4.640;2023-04-15T06:51:24;101360.00;;;6.89;85.97
67457;BME280;54319;52.038;4.640;2023-04-15T06:53:52;101393.59;;;7.19;86.15
67457;BME280;54319;52.038;4.640;2023-04-15T06:56:19;101394.31;;;7.45;84.84
67457;BME280;54319;52.038;4.640;2023-04-15T06:58:46;101375.13;;;7.78;83.69
67457;BME280;54319;52.038;4.640;2023-04-15T07:01:12;101393.56;;;8.29;82.11
67457;BME280;54319;52.038;4.640;2023-04-15T07:03:39;101397.72;;;8.78;79.80
67457;BME280;54319;52.038;4.640;2023-04-15T07:06:06;101403.25;;;9.15;78.20
67457;BME280;54319;52.038;4.640;2023-04-15T07:08:34;101395.44;;;9.64;74.90
67457;BME280;54319;52.038;4.640;2023-04-15T07:11:02;101410.81;;;10.08;73.85
67457;BME280;54319;52.038;4.640;2023-04-15T07:13:30;101384.34;;;10.31;72.28
67457;BME280;54319;52.038;4.640;2023-04-15T07:15:57;101420.97;;;11.00;70.21
67457;BME280;54319;52.038;4.640;2023-04-15T07:18:24;101418.31;;;11.62;68.68
67457;BME280;54319;52.038;4.640;2023-04-15T07:20:51;101374.22;;;11.85;66.53
67457;BME280;54319;52.038;4.640;2023-04-15T07:23:17;101420.59;;;12.54;64.51
67457;BME280;54319;52.038;4.640;2023-04-15T07:25:44;101426.41;;;13.05;63.16
67457;BME280;54319;52.038;4.640;2023-04-15T07:28:12;101426.88;;;13.93;60.63
67457;BME280;54319;52.038;4.640;2023-04-15T07:30:39;101434.31;;;14.75;56.69
67457;BME280;54319;52.038;4.640;2023-04-15T07:33:06;101420.63;;;15.13;54.99
67457;BME280;54319;52.038;4.640;2023-04-15T07:35:32;101447.41;;;15.55;53.85
67457;BME280;54319;52.038;4.640;2023-04-15T07:37:59;101431.09;;;15.72;53.56
67457;BME280;54319;52.038;4.640;2023-04-15T07:40:26;101426.84;;;16.06;53.17
67457;BME280;54319;52.038;4.640;2023-04-15T07:42:52;101444.88;;;16.45;51.61
67457;BME280;54319;52.038;4.640;2023-04-15T07:45:20;101468.25;;;16.66;50.87
67457;BME280;54319;52.038;4.640;2023-04-15T07:47:47;101450.88;;;16.66;50.31
67457;BME280;54319;52.038;4.640;2023-04-15T07:50:15;101467.66;;;16.88;51.41
67457;BME280;54319;52.038;4.640;2023-04-15T07:52:44;101473.91;;;16.95;49.37
67457;BME280;54319;52.038;4.640;2023-04-15T07:55:10;101473.53;;;16.91;48.89
67457;BME280;54319;52.038;4.640;2023-04-15T07:57:37;101485.13;;;16.82;49.02
67457;BME280;54319;52.038;4.640;2023-04-15T08:00:05;101498.69;;;16.95;47.93
67457;BME280;54319;52.038;4.640;2023-04-15T08:02:35;101500.06;;;16.50;49.61
67457;BME280;54319;52.038;4.640;2023-04-15T08:05:02;101495.88;;;16.59;49.24
67457;BME280;54319;52.038;4.640;2023-04-15T08:07:28;101502.41;;;16.77;49.37
67457;BME280;54319;52.038;4.640;2023-04-15T08:09:55;101508.88;;;16.71;49.12
67457;BME280;54319;52.038;4.640;2023-04-15T08:12:22;101507.19;;;16.70;49.03
67457;BME280;54319;52.038;4.640;2023-04-15T08:14:49;101526.97;;;16.90;49.36
67457;BME280;54319;52.038;4.640;2023-04-15T08:17:16;101527.25;;;17.13;48.18
67457;BME280;54319;52.038;4.640;2023-04-15T08:19:44;101534.41;;;17.02;48.43
67457;BME280;54319;52.038;4.640;2023-04-15T08:22:12;101539.00;;;16.66;49.36
67457;BME280;54319;52.038;4.640;2023-04-15T08:24:39;101522.88;;;15.96;50.53
67457;BME280;54319;52.038;4.640;2023-04-15T08:27:06;101497.03;;;15.41;51.30
67457;BME280;54319;52.038;4.640;2023-04-15T08:29:33;101546.72;;;15.02;54.50
67457;BME280;54319;52.038;4.640;2023-04-15T08:32:00;101550.06;;;14.47;56.86
67457;BME280;54319;52.038;4.640;2023-04-15T08:34:27;101532.19;;;13.92;57.66
67457;BME280;54319;52.038;4.640;2023-04-15T08:36:57;101558.19;;;13.76;59.42
67457;BME280;54319;52.038;4.640;2023-04-15T08:39:24;101558.25;;;13.36;59.77
67457;BME280;54319;52.038;4.640;2023-04-15T08:41:52;101569.66;;;13.19;60.39
67457;BME280;54319;52.038;4.640;2023-04-15T08:44:22;101570.50;;;13.20;60.41
67457;BME280;54319;52.038;4.640;2023-04-15T08:46:50;101581.91;;;12.90;59.35
67457;BME280;54319;52.038;4.640;2023-04-15T08:49:18;101578.53;;;13.01;59.02
67457;BME280;54319;52.038;4.640;2023-04-15T08:51:47;101593.25;;;12.93;58.52
67457;BME280;54319;52.038;4.640;2023-04-15T08:54:15;101589.28;;;12.96;59.25
67457;BME280;54319;52.038;4.640;2023-04-15T08:56:45;101582.94;;;13.15;59.18
67457;BME280;54319;52.038;4.640;2023-04-15T08:59:12;101578.09;;;13.17;59.51
67457;BME280;54319;52.038;4.640;2023-04-15T09:01:39;101565.00;;;13.20;59.16
67457;BME280;54319;52.038;4.640;2023-04-15T09:04:06;101590.09;;;13.30;57.78
67457;BME280;54319;52.038;4.640;2023-04-15T09:06:33;101596.00;;;13.40;57.11
67457;BME280;54319;52.038;4.640;2023-04-15T09:09:00;101603.81;;;13.43;56.89
67457;BME280;54319;52.038;4.640;2023-04-15T09:11:29;101605.31;;;13.46;56.79
67457;BME280;54319;52.038;4.640;2023-04-15T09:13:56;101609.25;;;13.37;57.07
67457;BME280;54319;52.038;4.640;2023-04-15T09:16:23;101602.13;;;13.29;55.09
67457;BME280;54319;52.038;4.640;2023-04-15T09:18:51;101610.97;;;13.17;57.37
67457;BME280;54319;52.038;4.640;2023-04-15T09:21:17;101602.75;;;13.44;56.65
67457;BME280;54319;52.038;4.640;2023-04-15T09:23:54;101601.72;;;13.45;56.50
67457;BME280;54319;52.038;4.640;2023-04-15T09:26:31;101618.34;;;13.51;56.42
67457;BME280;54319;52.038;4.640;2023-04-15T09:29:03;101636.25;;;13.73;56.22
67457;BME280;54319;52.038;4.640;2023-04-15T09:31:31;101632.03;;;13.71;53.96
67457;BME280;54319;52.038;4.640;2023-04-15T09:33:57;101639.84;;;13.67;54.01
67457;BME280;54319;52.038;4.640;2023-04-15T09:36:25;101648.28;;;13.32;53.47
67457;BME280;54319;52.038;4.640;2023-04-15T09:38:54;101652.94;;;13.45;54.52
67457;BME280;54319;52.038;4.640;2023-04-15T09:41:22;101650.59;;;13.35;55.24
67457;BME280;54319;52.038;4.640;2023-04-15T09:43:50;101627.81;;;13.01;54.55
67457;BME280;54319;52.038;4.640;2023-04-15T09:46:17;101616.44;;;12.97;53.68
67457;BME280;54319;52.038;4.640;2023-04-15T09:48:44;101652.88;;;13.05;54.62
67457;BME280;54319;52.038;4.640;2023-04-15T09:51:10;101663.44;;;13.21;54.83
67457;BME280;54319;52.038;4.640;2023-04-15T09:53:37;101659.47;;;13.51;54.26
67457;BME280;54319;52.038;4.640;2023-04-15T09:56:06;101668.28;;;13.80;52.29
67457;BME280;54319;52.038;4.640;2023-04-15T09:58:34;101666.22;;;13.68;51.07
67457;BME280;54319;52.038;4.640;2023-04-15T10:01:04;101643.88;;;13.51;51.89
67457;BME280;54319;52.038;4.640;2023-04-15T10:03:33;101669.16;;;13.60;52.48
67457;BME280;54319;52.038;4.640;2023-04-15T10:06:01;101668.53;;;13.71;53.44
67457;BME280;54319;52.038;4.640;2023-04-15T10:08:29;101669.78;;;13.75;53.34
67457;BME280;54319;52.038;4.640;2023-04-15T10:10:57;101678.41;;;13.86;51.88
67457;BME280;54319;52.038;4.640;2023-04-15T10:13:25;101651.22;;;13.37;51.16
67457;BME280;54319;52.038;4.640;2023-04-15T10:15:56;101688.75;;;13.77;51.42
67457;BME280;54319;52.038;4.640;2023-04-15T10:18:26;101703.31;;;13.37;51.23
67457;BME280;54319;52.038;4.640;2023-04-15T10:20:53;101684.34;;;13.56;52.31
67457;BME280;54319;52.038;4.640;2023-04-15T10:23:22;101707.13;;;13.56;51.38
67457;BME280;54319;52.038;4.640;2023-04-15T10:25:51;101682.66;;;13.55;51.96
67457;BME280;54319;52.038;4.640;2023-04-15T10:28:18;101698.69;;;13.65;51.09
67457;BME280;54319;52.038;4.640;2023-04-15T10:30:47;101689.81;;;13.83;52.26
67457;BME280;54319;52.038;4.640;2023-04-15T10:33:16;101696.94;;;14.04;52.13
67457;BME280;54319;52.038;4.640;2023-04-15T10:35:47;101696.50;;;14.14;52.71
67457;BME280;54319;52.038;4.640;2023-04-15T10:38:34;101695.63;;;14.13;53.20
67457;BME280;54319;52.038;4.640;2023-04-15T10:41:14;101690.56;;;14.24;53.25
67457;BME280;54319;52.038;4.640;2023-04-15T10:43:46;101666.50;;;14.19;53.79
67457;BME280;54319;52.038;4.640;2023-04-15T10:46:17;101696.78;;;14.51;51.69
67457;BME280;54319;52.038;4.640;2023-04-15T10:48:48;101706.91;;;14.57;50.57
67457;BME280;54319;52.038;4.640;2023-04-15T10:51:25;101704.16;;;14.51;51.79
67457;BME280;54319;52.038;4.640;2023-04-15T10:53:55;101703.50;;;14.62;52.24
67457;BME280;54319;52.038;4.640;2023-04-15T10:56:22;101709.81;;;14.69;51.26
67457;BME280;54319;52.038;4.640;2023-04-15T10:58:48;101702.22;;;14.65;52.84
67457;BME280;54319;52.038;4.640;2023-04-15T11:01:15;101709.66;;;14.96;52.05
67457;BME280;54319;52.038;4.640;2023-04-15T11:03:42;101678.84;;;14.94;51.84
67457;BME280;54319;52.038;4.640;2023-04-15T11:06:09;101681.44;;;15.14;51.15
67457;BME280;54319;52.038;4.640;2023-04-15T11:08:56;101705.44;;;15.58;50.59
67457;BME280;54319;52.038;4.640;2023-04-15T11:14:23;101710.44;;;15.93;50.96
67457;BME280;54319;52.038;4.640;2023-04-15T11:16:50;101722.06;;;15.95;49.05
67457;BME280;54319;52.038;4.640;2023-04-15T11:19:17;101723.13;;;15.94;49.26
67457;BME280;54319;52.038;4.640;2023-04-15T11:21:43;101723.22;;;16.25;48.83
67457;BME280;54319;52.038;4.640;2023-04-15T11:24:22;101729.47;;;15.95;47.03
67457;BME280;54319;52.038;4.640;2023-04-15T11:26:56;101736.66;;;15.70;47.16
67457;BME280;54319;52.038;4.640;2023-04-15T11:29:28;101742.59;;;15.67;45.91
67457;BME280;54319;52.038;4.640;2023-04-15T11:32:03;101758.22;;;15.09;47.64
67457;BME280;54319;52.038;4.640;2023-04-15T11:34:31;101760.47;;;15.26;50.14
67457;BME280;54319;52.038;4.640;2023-04-15T11:36:57;101740.47;;;15.12;48.20
67457;BME280;54319;52.038;4.640;2023-04-15T11:39:28;101765.38;;;15.17;48.75
67457;BME280;54319;52.038;4.640;2023-04-15T11:41:54;101762.22;;;15.45;48.06
67457;BME280;54319;52.038;4.640;2023-04-15T11:44:21;101762.97;;;15.59;47.37
67457;BME280;54319;52.038;4.640;2023-04-15T11:46:49;101734.78;;;15.39;47.59
67457;BME280;54319;52.038;4.640;2023-04-15T11:49:25;101763.66;;;15.55;48.76
67457;BME280;54319;52.038;4.640;2023-04-15T11:51:52;101780.47;;;15.40;47.62
67457;BME280;54319;52.038;4.640;2023-04-15T11:54:18;101781.22;;;15.22;48.41
67457;BME280;54319;52.038;4.640;2023-04-15T11:56:50;101741.66;;;14.84;48.89
67457;BME280;54319;52.038;4.640;2023-04-15T11:59:18;101785.16;;;14.94;48.67
67457;BME280;54319;52.038;4.640;2023-04-15T12:01:45;101767.91;;;15.18;49.36
67457;BME280;54319;52.038;4.640;2023-04-15T12:04:12;101774.69;;;15.48;48.97
67457;BME280;54319;52.038;4.640;2023-04-15T12:06:39;101775.28;;;15.57;47.96
67457;BME280;54319;52.038;4.640;2023-04-15T12:09:10;101787.06;;;15.64;47.55
67457;BME280;54319;52.038;4.640;2023-04-15T12:11:39;101753.13;;;15.45;47.48
67457;BME280;54319;52.038;4.640;2023-04-15T12:14:10;101772.69;;;15.62;47.81
67457;BME280;54319;52.038;4.640;2023-04-15T12:16:40;101789.47;;;15.79;47.65
67457;BME280;54319;52.038;4.640;2023-04-15T12:19:09;101748.91;;;15.42;46.52
67457;BME280;54319;52.038;4.640;2023-04-15T12:21:37;101817.94;;;15.66;46.72
67457;BME280;54319;52.038;4.640;2023-04-15T12:24:05;101788.94;;;15.63;46.31
67457;BME280;54319;52.038;4.640;2023-04-15T12:26:34;101810.13;;;15.63;45.74
67457;BME280;54319;52.038;4.640;2023-04-15T12:29:03;101809.81;;;15.46;45.57
67457;BME280;54319;52.038;4.640;2023-04-15T12:31:33;101817.03;;;15.72;45.52
67457;BME280;54319;52.038;4.640;2023-04-15T12:33:59;101819.13;;;15.77;44.99
67457;BME280;54319;52.038;4.640;2023-04-15T12:36:29;101825.94;;;15.68;45.50
67457;BME280;54319;52.038;4.640;2023-04-15T12:39:01;101787.06;;;15.32;46.72
67457;BME280;54319;52.038;4.640;2023-04-15T12:41:28;101832.31;;;15.68;45.46
67457;BME280;54319;52.038;4.640;2023-04-15T12:43:54;101816.81;;;15.74;45.35
67457;BME280;54319;52.038;4.640;2023-04-15T12:46:21;101834.63;;;15.65;46.02
67457;BME280;54319;52.038;4.640;2023-04-15T12:48:49;101830.44;;;15.62;46.79
67457;BME280;54319;52.038;4.640;2023-04-15T12:51:16;101826.06;;;15.80;46.66
67457;BME280;54319;52.038;4.640;2023-04-15T12:53:43;101836.41;;;15.84;46.43
67457;BME280;54319;52.038;4.640;2023-04-15T12:56:09;101846.13;;;15.23;46.34
67457;BME280;54319;52.038;4.640;2023-04-15T12:58:36;101843.75;;;15.65;47.23
67457;BME280;54319;52.038;4.640;2023-04-15T13:01:02;101845.94;;;15.82;45.84